createdAt,value
2023-04-12T00:01:41.986Z,99914.11
2023-04-12T00:04:16.939Z,99909.80
2023-04-12T00:06:58.211Z,99906.25
2023-04-12T00:09:30.990Z,99903.80
2023-04-12T00:12:02.232Z,99903.48
2023-04-12T00:14:40.572Z,99903.42
2023-04-12T00:17:10.806Z,99904.39
2023-04-12T00:19:45.339Z,99901.19
2023-04-12T00:22:22.491Z,99896.64
2023-04-12T00:24:57.769Z,99892.43
2023-04-12T00:27:28.017Z,99896.46
2023-04-12T00:29:58.392Z,99895.29
2023-04-12T00:32:29.323Z,99893.47
2023-04-12T00:35:00.925Z,99891.66
2023-04-12T00:37:34.909Z,99890.98
2023-04-12T00:40:08.449Z,99895.11
2023-04-12T00:42:38.412Z,99897.88
2023-04-12T00:45:08.609Z,99898.88
2023-04-12T00:47:43.616Z,99897.64
2023-04-12T00:50:13.221Z,99901.14
2023-04-12T00:52:45.814Z,99900.80
2023-04-12T00:55:16.789Z,99895.98
2023-04-12T00:57:46.947Z,99893.58
2023-04-12T01:00:17.616Z,99899.29
2023-04-12T01:02:50.558Z,99904.02
2023-04-12T01:05:23.703Z,99905.35
2023-04-12T01:08:15.843Z,99902.61
2023-04-12T01:11:39.723Z,99900.56
2023-04-12T01:14:23.246Z,99902.02
2023-04-12T01:16:58.861Z,99906.06
2023-04-12T01:19:34.321Z,99905.23
2023-04-12T01:23:01.023Z,99903.42
2023-04-12T01:25:48.204Z,99899.96
2023-04-12T01:28:29.370Z,99901.83
2023-04-12T01:31:01.554Z,99905.77
2023-04-12T01:33:32.415Z,99905.38
2023-04-12T01:36:07.911Z,99906.11
2023-04-12T01:38:37.815Z,99903.20
2023-04-12T01:41:11.371Z,99899.74
2023-04-12T01:43:43.088Z,99899.07
2023-04-12T01:46:23.262Z,99900.94
2023-04-12T01:48:54.915Z,99896.71
2023-04-12T01:51:58.626Z,99897.62
2023-04-12T01:54:38.657Z,99896.23
2023-04-12T01:57:11.651Z,99896.91
2023-04-12T01:59:43.759Z,99897.30
2023-04-12T02:02:14.114Z,99899.20
2023-04-12T02:04:44.619Z,99898.54
2023-04-12T02:07:19.078Z,99900.46
2023-04-12T02:09:48.290Z,99903.04
2023-04-12T02:12:23.809Z,99900.18
2023-04-12T02:14:53.007Z,99898.23
2023-04-12T02:17:22.723Z,99897.64
2023-04-12T02:19:51.903Z,99897.45
2023-04-12T02:22:21.979Z,99895.68
2023-04-12T02:24:55.479Z,99896.36
2023-04-12T02:27:25.681Z,99894.80
2023-04-12T02:30:00.223Z,99891.20
2023-04-12T02:32:33.369Z,99890.75
2023-04-12T02:35:05.544Z,99890.42
2023-04-12T02:37:35.932Z,99893.31
2023-04-12T02:40:11.164Z,99893.45
2023-04-12T02:42:45.776Z,99891.89
2023-04-12T02:45:19.614Z,99889.77
2023-04-12T02:47:50.102Z,99886.55
2023-04-12T02:50:21.012Z,99883.60
2023-04-12T02:53:02.366Z,99886.83
2023-04-12T02:55:39.319Z,99885.13
2023-04-12T02:58:14.766Z,99877.14
2023-04-12T03:00:50.650Z,99873.98
2023-04-12T03:03:25.241Z,99877.60
2023-04-12T03:06:00.331Z,99876.58
2023-04-12T03:08:30.308Z,99876.06
2023-04-12T03:11:01.141Z,99872.23
2023-04-12T03:13:31.990Z,99875.50
2023-04-12T03:16:25.168Z,99876.17
2023-04-12T03:19:01.501Z,99879.30
2023-04-12T03:21:33.869Z,99876.88
2023-04-12T03:24:07.578Z,99874.62
2023-04-12T03:26:38.535Z,99873.58
2023-04-12T03:29:19.462Z,99874.25
2023-04-12T03:31:51.188Z,99876.28
2023-04-12T03:34:21.278Z,99874.54
2023-04-12T03:36:59.652Z,99870.33
2023-04-12T03:39:48.339Z,99869.14
2023-04-12T03:42:32.916Z,99869.92
2023-04-12T03:45:14.481Z,99875.03
2023-04-12T03:47:52.157Z,99870.58
2023-04-12T03:50:24.097Z,99870.12
2023-04-12T03:52:58.723Z,99872.38
2023-04-12T03:55:35.971Z,99873.66
2023-04-12T03:58:19.223Z,99870.89
2023-04-12T04:00:58.400Z,99868.65
2023-04-12T04:03:30.137Z,99864.54
2023-04-12T04:06:11.467Z,99864.92
2023-04-12T04:08:44.651Z,99866.61
2023-04-12T04:11:18.579Z,99858.48
2023-04-12T04:13:56.077Z,99859.64
2023-04-12T04:16:25.896Z,99860.48
2023-04-12T04:18:58.528Z,99859.23
2023-04-12T04:21:30.692Z,99862.13
2023-04-12T04:24:01.545Z,99861.74
2023-04-12T04:26:33.735Z,99864.20
2023-04-12T04:29:18.889Z,99868.05
2023-04-12T04:31:48.664Z,99872.02
2023-04-12T04:34:19.321Z,99874.59
2023-04-12T04:36:52.627Z,99878.96
2023-04-12T04:39:27.573Z,99881.23
2023-04-12T04:42:00.863Z,99877.23
2023-04-12T04:44:37.428Z,99876.86
2023-04-12T04:47:12.021Z,99881.35
2023-04-12T04:49:46.035Z,99881.08
2023-04-12T04:52:35.649Z,99886.92
2023-04-12T04:55:26.155Z,99890.29
2023-04-12T04:58:02.891Z,99892.14
2023-04-12T05:00:36.644Z,99891.58
2023-04-12T05:03:09.450Z,99892.72
2023-04-12T05:05:48.189Z,99892.50
2023-04-12T05:08:21.646Z,99885.98
2023-04-12T05:10:53.955Z,99875.85
2023-04-12T05:13:29.994Z,99879.23
2023-04-12T05:16:08.561Z,99881.33
2023-04-12T05:18:40.295Z,99883.27
2023-04-12T05:21:13.092Z,99878.29
2023-04-12T05:23:50.845Z,99885.83
2023-04-12T05:26:26.246Z,99889.10
2023-04-12T05:29:01.391Z,99890.55
2023-04-12T05:31:35.737Z,99888.42
2023-04-12T05:34:10.727Z,99891.72
2023-04-12T05:36:44.948Z,99893.36
2023-04-12T05:39:24.771Z,99890.02
2023-04-12T05:42:00.448Z,99889.73
2023-04-12T05:44:30.115Z,99891.82
2023-04-12T05:46:59.801Z,99892.84
2023-04-12T05:49:31.516Z,99895.48
2023-04-12T05:52:04.908Z,99889.61
2023-04-12T05:54:35.372Z,99891.76
2023-04-12T05:57:05.204Z,99892.86
2023-04-12T05:59:35.332Z,99897.72
2023-04-12T06:02:04.997Z,99898.67
2023-04-12T06:04:49.300Z,99895.39
2023-04-12T06:07:21.446Z,99897.77
2023-04-12T06:09:51.025Z,99900.77
2023-04-12T06:12:21.138Z,99901.27
2023-04-12T06:14:50.518Z,99899.54
2023-04-12T06:17:19.806Z,99893.91
2023-04-12T06:19:49.119Z,99889.89
2023-04-12T06:22:18.475Z,99885.32
2023-04-12T06:24:47.830Z,99880.77
2023-04-12T06:27:17.739Z,99873.44
2023-04-12T06:29:47.212Z,99867.98
2023-04-12T06:32:16.546Z,99866.95
2023-04-12T06:34:45.840Z,99865.79
2023-04-12T06:37:17.305Z,99863.55
2023-04-12T06:39:46.515Z,99860.91
2023-04-12T06:42:16.153Z,99859.09
2023-04-12T06:44:45.388Z,99861.72
2023-04-12T06:47:14.680Z,99863.27
2023-04-12T06:49:43.962Z,99865.06
2023-04-12T06:52:13.126Z,99869.15
2023-04-12T06:54:42.753Z,99868.78
2023-04-12T06:57:11.923Z,99869.48
2023-04-12T06:59:41.429Z,99862.80
2023-04-12T07:02:11.073Z,99864.57
2023-04-12T07:04:40.799Z,99864.60
2023-04-12T07:07:10.815Z,99861.90
2023-04-12T07:09:40.432Z,99856.42
2023-04-12T07:12:09.505Z,99857.37
2023-04-12T07:14:38.796Z,99854.97
2023-04-12T07:17:07.989Z,99854.39
2023-04-12T07:19:37.354Z,99856.52
2023-04-12T07:22:06.523Z,99860.67
2023-04-12T07:24:35.848Z,99859.64
2023-04-12T07:27:05.088Z,99849.64
2023-04-12T07:29:34.514Z,99841.84
2023-04-12T07:32:05.057Z,99844.84
2023-04-12T07:34:34.477Z,99850.66
2023-04-12T07:37:04.211Z,99848.86
2023-04-12T07:39:35.233Z,99848.55
2023-04-12T07:42:04.802Z,99848.04
2023-04-12T07:44:37.099Z,99853.20
2023-04-12T07:47:07.747Z,99842.30
2023-04-12T07:49:36.787Z,99841.44
2023-04-12T07:52:05.822Z,99840.41
2023-04-12T07:54:35.066Z,99840.60
2023-04-12T07:57:04.330Z,99837.59
2023-04-12T07:59:34.317Z,99836.98
2023-04-12T08:02:03.994Z,99840.83
2023-04-12T08:04:33.562Z,99841.27
2023-04-12T08:07:06.004Z,99841.39
2023-04-12T08:09:35.054Z,99838.73
2023-04-12T08:12:04.608Z,99842.44
2023-04-12T08:14:33.816Z,99844.82
2023-04-12T08:17:03.185Z,99841.56
2023-04-12T08:19:32.451Z,99836.41
2023-04-12T08:22:02.198Z,99835.29
2023-04-12T08:24:31.494Z,99837.71
2023-04-12T08:27:02.572Z,99835.73
2023-04-12T08:29:31.853Z,99832.14
2023-04-12T08:32:01.740Z,99829.36
2023-04-12T08:34:30.874Z,99829.54
2023-04-12T08:37:01.417Z,99828.54
2023-04-12T08:39:33.115Z,99824.09
2023-04-12T08:42:05.069Z,99826.16
2023-04-12T08:44:38.996Z,99829.50
2023-04-12T08:47:11.894Z,99828.23
2023-04-12T08:49:41.375Z,99824.13
2023-04-12T08:52:11.449Z,99826.30
2023-04-12T08:54:41.766Z,99825.11
2023-04-12T08:57:13.007Z,99819.16
2023-04-12T08:59:45.831Z,99817.12
2023-04-12T09:02:15.575Z,99823.48
2023-04-12T09:04:50.802Z,99820.39
2023-04-12T09:07:23.638Z,99811.33
2023-04-12T09:09:52.974Z,99809.97
2023-04-12T09:12:24.423Z,99808.09
2023-04-12T09:15:13.095Z,99809.27
2023-04-12T09:17:43.314Z,99806.32
2023-04-12T09:20:12.728Z,99808.53
2023-04-12T09:22:46.706Z,99809.28
2023-04-12T09:25:16.839Z,99807.16
2023-04-12T09:27:51.855Z,99802.17
2023-04-12T09:30:21.289Z,99807.27
2023-04-12T09:32:50.832Z,99804.70
2023-04-12T09:35:33.845Z,99799.77
2023-04-12T09:38:11.177Z,99797.08
2023-04-12T09:40:40.931Z,99796.35
2023-04-12T09:43:11.381Z,99795.66
2023-04-12T09:45:40.606Z,99788.73
2023-04-12T09:48:21.548Z,99779.77
2023-04-12T09:50:59.066Z,99778.59
2023-04-12T09:53:41.335Z,99776.55
2023-04-12T09:56:12.643Z,99771.63
2023-04-12T09:58:43.246Z,99766.42
2023-04-12T10:01:14.609Z,99763.66
2023-04-12T10:03:44.941Z,99760.02
2023-04-12T10:06:15.590Z,99755.09
2023-04-12T10:08:46.324Z,99752.70
2023-04-12T10:11:15.869Z,99751.30
2023-04-12T10:13:45.451Z,99748.30
2023-04-12T10:16:16.886Z,99745.64
2023-04-12T10:18:47.523Z,99743.87
2023-04-12T10:21:17.379Z,99739.25
2023-04-12T10:23:47.478Z,99736.06
2023-04-12T10:26:17.369Z,99729.13
2023-04-12T10:28:51.459Z,99729.13
2023-04-12T10:32:16.961Z,99730.66
2023-04-12T10:34:56.776Z,99726.52
2023-04-12T10:38:02.216Z,99726.76
2023-04-12T10:40:34.450Z,99725.27
2023-04-12T10:43:20.229Z,99725.45
2023-04-12T10:45:55.788Z,99721.85
2023-04-12T10:48:52.885Z,99717.11
2023-04-12T10:51:28.376Z,99720.96
2023-04-12T10:54:08.946Z,99711.80
2023-04-12T10:56:52.080Z,99709.55
2023-04-12T10:59:59.651Z,99704.30
2023-04-12T11:02:29.170Z,99705.39
2023-04-12T11:05:12.921Z,99697.30
2023-04-12T11:07:54.742Z,99689.98
2023-04-12T11:10:47.072Z,99689.96
2023-04-12T11:13:36.964Z,99687.98
2023-04-12T11:16:08.116Z,99679.96
2023-04-12T11:18:40.031Z,99677.71
2023-04-12T11:21:19.527Z,99674.71
2023-04-12T11:23:49.800Z,99675.79
2023-04-12T11:26:22.405Z,99669.88
2023-04-12T11:28:59.629Z,99668.27
2023-04-12T11:31:31.714Z,99664.45
2023-04-12T11:34:13.866Z,99664.10
2023-04-12T11:36:58.283Z,99663.30
2023-04-12T11:39:34.938Z,99661.16
2023-04-12T11:42:29.830Z,99656.98
2023-04-12T11:45:15.843Z,99653.55
2023-04-12T11:47:55.192Z,99652.63
2023-04-12T11:50:32.784Z,99653.48
2023-04-12T11:53:13.871Z,99651.33
2023-04-12T11:55:59.089Z,99646.77
2023-04-12T11:58:42.294Z,99641.71
2023-04-12T12:01:26.740Z,99639.13
2023-04-12T12:04:03.034Z,99635.13
2023-04-12T12:06:37.502Z,99628.86
2023-04-12T12:09:20.316Z,99625.35
2023-04-12T12:12:00.840Z,99620.88
2023-04-12T12:14:40.279Z,99617.02
2023-04-12T12:17:20.155Z,99615.80
2023-04-12T12:19:53.295Z,99616.27
2023-04-12T12:22:29.105Z,99613.70
2023-04-12T12:26:14.203Z,99608.02
2023-04-12T12:29:00.887Z,99603.83
2023-04-12T12:31:31.635Z,99602.92
2023-04-12T12:37:59.159Z,99597.21
2023-04-12T12:40:33.031Z,99597.58
2023-04-12T12:43:04.654Z,99593.50
2023-04-12T12:45:38.207Z,99591.23
2023-04-12T12:48:19.363Z,99586.61
2023-04-12T12:50:55.964Z,99583.88
2023-04-12T12:53:31.857Z,99581.70
2023-04-12T12:56:12.025Z,99576.41
2023-04-12T12:58:42.806Z,99571.05
2023-04-12T13:01:18.995Z,99569.09
2023-04-12T13:04:06.797Z,99572.70
2023-04-12T13:06:46.970Z,99568.36
2023-04-12T13:09:22.556Z,99562.02
2023-04-12T13:12:02.598Z,99557.98
2023-04-12T13:14:36.046Z,99555.58
2023-04-12T13:17:10.271Z,99553.09
2023-04-12T13:19:52.159Z,99552.66
2023-04-12T13:22:22.430Z,99551.04
2023-04-12T13:24:59.031Z,99550.00
2023-04-12T13:27:36.927Z,99544.73
2023-04-12T13:30:28.862Z,99536.73
2023-04-12T13:33:07.569Z,99538.31
2023-04-12T13:35:41.070Z,99538.77
2023-04-12T13:38:11.716Z,99530.75
2023-04-12T13:40:43.842Z,99529.84
2023-04-12T13:43:21.675Z,99526.84
2023-04-12T13:46:00.045Z,99522.40
2023-04-12T13:48:33.019Z,99521.28
2023-04-12T13:51:05.680Z,99521.16
2023-04-12T13:53:38.793Z,99512.32
2023-04-12T13:56:09.615Z,99507.08
2023-04-12T13:58:46.122Z,99504.56
2023-04-12T14:01:23.885Z,99501.71
2023-04-12T14:03:56.055Z,99503.14
2023-04-12T14:06:30.454Z,99499.80
2023-04-12T14:09:27.351Z,99495.77
2023-04-12T14:12:48.428Z,99492.71
2023-04-12T14:16:09.354Z,99491.55
2023-04-12T14:18:47.145Z,99489.98
2023-04-12T14:21:29.386Z,99490.21
2023-04-12T14:24:11.955Z,99493.13
2023-04-12T14:26:54.781Z,99489.47
2023-04-12T14:29:29.408Z,99488.98
2023-04-12T14:32:05.121Z,99488.42
2023-04-12T14:34:59.589Z,99488.09
2023-04-12T14:37:37.413Z,99483.71
2023-04-12T14:40:10.758Z,99485.35
2023-04-12T14:43:14.977Z,99483.89
2023-04-12T14:46:30.172Z,99479.15
2023-04-12T14:49:38.629Z,99477.86
2023-04-12T14:52:41.692Z,99477.19
2023-04-12T14:55:15.256Z,99475.96
2023-04-12T14:57:48.167Z,99473.24
2023-04-12T15:00:26.872Z,99471.95
2023-04-12T15:03:01.134Z,99472.53
2023-04-12T15:05:36.391Z,99472.64
2023-04-12T15:08:07.617Z,99471.42
2023-04-12T15:10:39.787Z,99471.66
2023-04-12T15:13:14.541Z,99472.77
2023-04-12T15:15:49.213Z,99466.27
2023-04-12T15:18:23.585Z,99469.34
2023-04-12T15:21:06.140Z,99461.45
2023-04-12T15:24:28.928Z,99458.00
2023-04-12T15:27:48.551Z,99452.60
2023-04-12T15:30:29.418Z,99453.59
2023-04-12T15:33:06.093Z,99454.88
2023-04-12T15:35:44.537Z,99453.64
2023-04-12T15:38:32.153Z,99457.14
2023-04-12T15:41:07.428Z,99454.64
2023-04-12T15:43:47.537Z,99451.38
2023-04-12T15:49:26.720Z,99446.36
2023-04-12T15:52:15.867Z,99444.20
2023-04-12T15:54:51.688Z,99443.40
2023-04-12T15:57:27.398Z,99441.59
2023-04-12T16:00:38.708Z,99438.30
2023-04-12T16:03:18.157Z,99438.31
2023-04-12T16:05:57.679Z,99435.72
2023-04-12T16:08:41.785Z,99432.75
2023-04-12T16:11:28.213Z,99433.38
2023-04-12T16:14:22.712Z,99431.40
2023-04-12T16:17:03.156Z,99429.52
2023-04-12T16:19:35.806Z,99424.04
2023-04-12T16:22:23.448Z,99419.10
2023-04-12T16:25:11.206Z,99418.14
2023-04-12T16:27:45.500Z,99414.83
2023-04-12T16:30:28.411Z,99414.04
2023-04-12T16:33:04.094Z,99412.21
2023-04-12T16:35:49.878Z,99410.04
2023-04-12T16:38:37.245Z,99408.14
2023-04-12T16:41:36.548Z,99409.11
2023-04-12T16:44:21.927Z,99415.98
2023-04-12T16:47:25.122Z,99416.66
2023-04-12T16:50:14.704Z,99414.08
2023-04-12T16:52:52.758Z,99414.65
2023-04-12T16:55:25.622Z,99413.79
2023-04-12T16:57:58.681Z,99413.14
2023-04-12T17:00:39.853Z,99411.20
2023-04-12T17:03:26.126Z,99411.49
2023-04-12T17:06:00.059Z,99407.85
2023-04-12T17:08:45.862Z,99407.47
2023-04-12T17:11:26.373Z,99414.38
2023-04-12T17:14:01.083Z,99414.98
2023-04-12T17:16:33.709Z,99416.25
2023-04-12T17:19:03.305Z,99415.44
2023-04-12T17:21:43.477Z,99414.56
2023-04-12T17:24:12.741Z,99415.19
2023-04-12T17:26:42.178Z,99418.05
2023-04-12T17:29:14.895Z,99418.94
2023-04-12T17:31:46.119Z,99417.56
2023-04-12T17:34:15.979Z,99416.77
2023-04-12T17:36:45.574Z,99418.64
2023-04-12T17:39:15.568Z,99418.35
2023-04-12T17:41:55.143Z,99416.62
2023-04-12T17:44:29.223Z,99410.65
2023-04-12T17:47:16.433Z,99409.29
2023-04-12T17:50:12.197Z,99405.43
2023-04-12T17:52:57.441Z,99405.00
2023-04-12T17:55:38.829Z,99400.29
2023-04-12T17:58:36.911Z,99399.60
2023-04-12T18:01:16.586Z,99396.98
2023-04-12T18:03:57.505Z,99394.77
2023-04-12T18:06:48.518Z,99395.47
2023-04-12T18:09:30.405Z,99395.98
2023-04-12T18:12:04.816Z,99392.77
2023-04-12T18:14:37.105Z,99395.84
2023-04-12T18:17:16.111Z,99398.57
2023-04-12T18:19:59.521Z,99397.94
2023-04-12T18:22:34.932Z,99397.98
2023-04-12T18:25:10.285Z,99400.71
2023-04-12T18:27:40.710Z,99405.42
2023-04-12T18:30:21.291Z,99405.29
2023-04-12T18:33:03.544Z,99405.89
2023-04-12T18:35:40.987Z,99404.13
2023-04-12T18:38:53.064Z,99403.67
2023-04-12T18:46:02.230Z,99399.70
2023-04-12T18:50:01.093Z,99401.01
2023-04-12T18:53:20.599Z,99407.52
2023-04-12T18:56:11.131Z,99410.95
2023-04-12T18:59:02.277Z,99409.58
2023-04-12T19:07:15.943Z,99425.60
2023-04-12T19:12:35.516Z,99426.49
2023-04-12T19:18:47.864Z,99430.16
2023-04-12T19:21:38.245Z,99429.70
2023-04-12T19:24:44.713Z,99430.15
2023-04-12T19:27:27.845Z,99427.98
2023-04-12T19:30:17.010Z,99423.72
2023-04-12T19:32:59.988Z,99420.84
2023-04-12T19:36:07.156Z,99419.17
2023-04-12T19:38:44.717Z,99416.73
2023-04-12T19:41:35.094Z,99415.59
2023-04-12T19:44:19.330Z,99409.30
2023-04-12T19:47:20.123Z,99411.71
2023-04-12T19:50:32.087Z,99408.08
2023-04-12T19:57:00.176Z,99404.91
2023-04-12T19:59:49.255Z,99410.04
2023-04-12T20:02:24.589Z,99407.14
2023-04-12T20:05:04.467Z,99405.36
2023-04-12T20:07:40.982Z,99404.65
2023-04-12T20:10:15.788Z,99399.52
2023-04-12T20:12:51.400Z,99398.55
2023-04-12T20:15:31.890Z,99398.50
2023-04-12T20:18:05.419Z,99401.73
2023-04-12T20:21:06.852Z,99398.83
2023-04-12T20:23:52.941Z,99400.64
2023-04-12T20:27:14.001Z,99397.13
2023-04-12T20:30:42.069Z,99397.75
2023-04-12T20:33:13.993Z,99401.29
2023-04-12T20:39:18.828Z,99401.12
2023-04-12T20:41:58.471Z,99402.70
2023-04-12T20:44:29.022Z,99399.32
2023-04-12T20:47:35.939Z,99401.02
2023-04-12T20:50:19.317Z,99397.85
2023-04-12T20:53:08.317Z,99393.40
2023-04-12T20:55:58.733Z,99391.07
2023-04-12T20:58:50.741Z,99385.34
2023-04-12T21:01:26.729Z,99381.88
2023-04-12T21:04:18.580Z,99379.77
2023-04-12T21:07:47.915Z,99377.95
2023-04-12T21:10:31.407Z,99374.62
2023-04-12T21:13:11.504Z,99370.57
2023-04-12T21:15:46.307Z,99368.95
2023-04-12T21:18:23.891Z,99370.48
2023-04-12T21:20:55.861Z,99370.68
2023-04-12T21:23:33.704Z,99369.51
2023-04-12T21:26:09.168Z,99372.26
2023-04-12T21:28:41.735Z,99365.45
2023-04-12T21:31:15.304Z,99361.44
2023-04-12T21:33:50.566Z,99355.64
2023-04-12T21:36:21.475Z,99352.79
2023-04-12T21:39:08.308Z,99352.13
2023-04-12T21:41:40.273Z,99346.65
2023-04-12T21:44:12.919Z,99347.31
2023-04-12T21:46:45.701Z,99341.09
2023-04-12T21:49:16.128Z,99339.74
2023-04-12T21:51:47.338Z,99336.20
2023-04-12T21:54:17.154Z,99330.90
2023-04-12T21:56:50.225Z,99319.92
2023-04-12T21:59:25.077Z,99316.58
2023-04-12T22:01:58.380Z,99313.63
2023-04-12T22:04:28.371Z,99314.52
2023-04-12T22:06:58.350Z,99313.09
2023-04-12T22:09:36.458Z,99313.70
2023-04-12T22:12:08.880Z,99310.73
2023-04-12T22:14:47.221Z,99310.85
2023-04-12T22:17:25.714Z,99307.45
2023-04-12T22:19:58.323Z,99303.32
2023-04-12T22:22:29.412Z,99299.26
2023-04-12T22:25:00.546Z,99299.35
2023-04-12T22:27:36.450Z,99300.61
2023-04-12T22:30:11.839Z,99297.80
2023-04-12T22:32:44.376Z,99294.52
2023-04-12T22:35:18.274Z,99288.81
2023-04-12T22:37:53.417Z,99291.45
2023-04-12T22:40:25.913Z,99297.27
2023-04-12T22:42:58.793Z,99295.03
2023-04-12T22:45:34.985Z,99295.98
2023-04-12T22:48:15.056Z,99295.09
2023-04-12T22:50:45.520Z,99297.67
2023-04-12T22:53:19.236Z,99293.93
2023-04-12T22:55:52.832Z,99290.69
2023-04-12T22:58:33.826Z,99288.97
2023-04-12T23:01:07.951Z,99288.48
2023-04-12T23:03:43.967Z,99291.36
2023-04-12T23:06:22.300Z,99289.46
2023-04-12T23:09:00.393Z,99284.19
2023-04-12T23:11:32.642Z,99282.33
2023-04-12T23:14:07.288Z,99280.44
2023-04-12T23:16:46.205Z,99275.63
2023-04-12T23:19:19.382Z,99273.73
2023-04-12T23:22:04.892Z,99268.17
2023-04-12T23:24:53.048Z,99262.41
2023-04-12T23:27:54.032Z,99252.77
2023-04-12T23:30:38.028Z,99241.80
2023-04-12T23:33:11.505Z,99236.55
2023-04-12T23:35:46.108Z,99230.54
2023-04-12T23:38:27.468Z,99229.63
2023-04-12T23:40:57.477Z,99225.17
2023-04-12T23:43:29.601Z,99224.71
2023-04-12T23:46:05.310Z,99221.70
2023-04-12T23:48:39.153Z,99220.05
2023-04-12T23:51:17.182Z,99222.05
2023-04-12T23:53:50.418Z,99226.41
2023-04-12T23:56:28.335Z,99231.45
2023-04-12T23:59:00.796Z,99235.91
